Time;durP1;ratioP1;P1;durP2;ratioP2;P2;SDS_P1;SDS_P2;PMS_P1;PMS_P2;Temp;Humidity;BMP_temperature;BMP_pressure;BME280_temperature;BME280_humidity;BME280_pressure;Samples;Min_cycle;Max_cycle;Signal;HPM_P1;HPM_P2
2022/03/21 00:00:43;;;;;;;;;66.75;48.25;;;;;12.06;46.13;101943.66;5077064;27;46616;-80
2022/03/21 00:03:10;;;;;;;;;62.50;48.00;;;;;12.03;46.37;101945.59;5077047;27;46084;-80
2022/03/21 00:05:36;;;;;;;;;60.00;48.25;;;;;12.02;46.29;101941.28;5077056;27;45647;-80
2022/03/21 00:08:02;;;;;;;;;63.25;47.00;;;;;12.04;46.42;101939.41;5076896;27;45907;-80
2022/03/21 00:10:28;;;;;;;;;56.50;46.25;;;;;12.03;46.47;101935.09;5076900;27;45609;-81
2022/03/21 00:12:54;;;;;;;;;60.25;47.00;;;;;11.98;46.81;101935.38;5075067;28;47111;-82
2022/03/21 00:18:41;;;;;;;;;66.75;52.25;;;;;11.98;46.81;101947.66;5076387;27;45682;-82
2022/03/21 00:21:07;;;;;;;;;61.25;47.75;;;;;11.95;46.84;101943.41;5076663;28;46406;-81
2022/03/21 00:23:33;;;;;;;;;63.75;49.75;;;;;11.94;47.17;101946.09;5076751;27;46013;-80
2022/03/21 00:25:59;;;;;;;;;66.50;51.00;;;;;11.93;47.02;101945.25;5076696;27;45925;-81
2022/03/21 00:28:27;;;;;;;;;60.25;47.00;;;;;11.92;47.02;101948.81;5076863;28;45600;-83
2022/03/21 00:30:53;;;;;;;;;62.50;48.25;;;;;11.92;46.72;101946.19;5076721;28;46336;-82
2022/03/21 00:33:19;;;;;;;;;60.00;46.75;;;;;11.89;46.96;101935.84;5076815;27;46112;-82
2022/03/21 00:35:47;;;;;;;;;58.25;47.75;;;;;11.90;47.06;101942.81;5076994;27;45427;-83
2022/03/21 00:38:17;;;;;;;;;63.00;49.50;;;;;11.92;47.11;101947.97;5076934;27;45519;-82
2022/03/21 00:40:45;;;;;;;;;63.50;48.75;;;;;11.90;47.16;101940.19;5076826;27;46374;-82
2022/03/21 00:43:17;;;;;;;;;65.25;50.00;;;;;11.87;47.29;101945.63;5076368;27;46242;-81
2022/03/21 00:49:08;;;;;;;;;57.00;44.75;;;;;11.90;47.27;101948.06;5076143;28;45675;-81
2022/03/21 00:51:33;;;;;;;;;63.50;50.00;;;;;11.90;47.30;101944.56;5076247;27;45534;-82
2022/03/21 00:53:59;;;;;;;;;68.75;49.50;;;;;11.86;47.36;101933.41;5091897;27;46114;-81
2022/03/21 00:56:24;;;;;;;;;66.50;50.25;;;;;11.85;47.46;101936.97;5076270;28;45436;-80
2022/03/21 00:58:50;;;;;;;;;61.50;49.75;;;;;11.86;47.53;101936.03;5076357;28;45586;-81
2022/03/21 01:01:15;;;;;;;;;64.50;50.00;;;;;11.84;47.83;101937.88;5076169;28;46658;-83
2022/03/21 01:03:41;;;;;;;;;58.00;47.50;;;;;11.82;47.95;101936.28;5075764;27;46323;-83
2022/03/21 01:06:06;;;;;;;;;58.75;47.50;;;;;11.81;47.76;101939.84;5076012;27;45629;-83
2022/03/21 01:08:32;;;;;;;;;54.25;45.25;;;;;11.78;47.69;101932.97;5076281;27;45747;-80
2022/03/21 01:10:57;;;;;;;;;59.75;45.50;;;;;11.77;47.78;101937.38;5075945;27;46123;-83
2022/03/21 01:13:23;;;;;;;;;64.25;49.25;;;;;11.76;47.86;101938.31;5076030;27;45715;-82
2022/03/21 01:19:10;;;;;;;;;60.00;48.00;;;;;11.74;47.97;101944.56;5075642;28;45750;-82
2022/03/21 01:21:35;;;;;;;;;64.75;50.00;;;;;11.70;47.92;101933.38;5075916;27;46433;-81
2022/03/21 01:24:01;;;;;;;;;56.00;46.50;;;;;11.68;48.11;101934.38;5075834;28;45711;-82
2022/03/21 01:26:27;;;;;;;;;59.75;47.25;;;;;11.68;48.08;101931.75;5075821;28;45755;-81
2022/03/21 01:28:53;;;;;;;;;57.50;44.50;;;;;11.69;48.26;101938.69;5075855;27;45803;-81
2022/03/21 01:31:18;;;;;;;;;58.25;46.50;;;;;11.70;48.33;101943.88;5075636;27;46357;-81
2022/03/21 01:33:43;;;;;;;;;58.00;46.00;;;;;11.67;48.10;101936.16;5091193;27;47151;-81
2022/03/21 01:36:09;;;;;;;;;57.00;46.25;;;;;11.69;48.14;101938.69;5075645;28;45664;-82
2022/03/21 01:38:35;;;;;;;;;48.75;40.25;;;;;11.68;48.29;101931.75;5074273;28;46035;-80
2022/03/21 01:41:01;;;;;;;;;58.25;44.00;;;;;11.71;48.14;101945.53;5075587;27;45625;-80
2022/03/21 01:43:27;;;;;;;;;58.50;43.75;;;;;11.72;48.45;101934.13;5075810;27;45553;-82
2022/03/21 01:49:17;;;;;;;;;58.75;47.75;;;;;11.74;48.30;101937.56;5075331;28;45767;-83
2022/03/21 01:51:42;;;;;;;;;60.00;47.75;;;;;11.76;48.30;101937.47;5075401;27;46850;-82
2022/03/21 01:56:53;;;;;;;;;60.75;49.75;;;;;11.75;48.55;101935.78;5074891;28;46020;-83
2022/03/21 01:59:20;;;;;;;;;58.50;46.00;;;;;11.74;48.47;101942.78;5075345;28;45460;-82
2022/03/21 02:01:47;;;;;;;;;56.25;46.25;;;;;11.72;48.65;101943.75;5075129;27;46352;-81
2022/03/21 02:04:13;;;;;;;;;60.25;46.00;;;;;11.72;48.72;101949.88;5107961;27;47308;-80
2022/03/21 02:06:41;;;;;;;;;60.00;48.00;;;;;11.72;48.64;101942.00;5075186;27;45563;-81
2022/03/21 02:09:07;;;;;;;;;62.25;48.50;;;;;11.70;48.71;101937.78;5075120;27;45737;-83
2022/03/21 02:11:33;;;;;;;;;59.50;46.50;;;;;11.70;48.74;101936.00;5075112;27;45649;-82
2022/03/21 02:14:00;;;;;;;;;59.00;45.00;;;;;11.67;48.81;101933.50;5074086;28;46180;-81
2022/03/21 02:19:48;;;;;;;;;61.25;49.50;;;;;11.69;48.97;101943.94;5071730;28;45552;-82
2022/03/21 02:22:28;;;;;;;;;64.75;49.25;;;;;11.68;48.98;101929.13;5075019;28;46529;-81
2022/03/21 02:25:03;;;;;;;;;58.75;47.25;;;;;11.66;49.04;101929.19;5074917;28;46298;-82
2022/03/21 02:27:31;;;;;;;;;60.00;44.50;;;;;11.65;49.14;101932.78;5074749;27;45913;-80
2022/03/21 02:29:58;;;;;;;;;61.25;48.00;;;;;11.63;49.07;101923.28;5075111;27;45551;-82
2022/03/21 02:32:25;;;;;;;;;60.25;47.00;;;;;11.62;48.89;101926.81;5074664;27;46858;-81
2022/03/21 02:34:54;;;;;;;;;56.50;46.25;;;;;11.62;49.04;101930.28;5074793;28;46182;-82
2022/03/21 02:37:20;;;;;;;;;64.50;48.50;;;;;11.59;49.17;101917.34;5074636;27;45880;-82
2022/03/21 02:39:48;;;;;;;;;56.75;43.75;;;;;11.64;49.18;101924.97;5074933;27;45491;-81
2022/03/21 02:42:14;;;;;;;;;67.00;48.00;;;;;11.61;49.30;101918.09;5074639;27;46382;-81
2022/03/21 02:44:39;;;;;;;;;60.25;48.75;;;;;11.61;49.12;101917.25;5074589;28;46114;-82
2022/03/21 02:47:06;;;;;;;;;62.25;47.50;;;;;11.64;49.10;101927.59;5074509;27;45640;-81
2022/03/21 02:49:33;;;;;;;;;61.25;45.50;;;;;11.60;49.32;101916.44;5074724;27;45617;-82
2022/03/21 02:52:00;;;;;;;;;62.50;46.50;;;;;11.64;49.08;101920.56;5074379;27;45635;-80
2022/03/21 02:54:26;;;;;;;;;62.25;47.25;;;;;11.65;49.23;101921.41;5074659;27;46081;-81
2022/03/21 02:56:52;;;;;;;;;58.25;47.75;;;;;11.63;49.51;101913.63;5074340;27;45540;-81
2022/03/21 02:59:17;;;;;;;;;64.25;47.25;;;;;11.64;49.44;101912.69;5074561;28;45663;-81
2022/03/21 03:05:05;;;;;;;;;58.75;48.00;;;;;11.68;49.62;101922.09;5074173;28;45590;-82
2022/03/21 03:07:30;;;;;;;;;61.00;48.25;;;;;11.69;49.55;101922.94;5074245;28;45645;-81
2022/03/21 03:09:56;;;;;;;;;63.25;50.25;;;;;11.67;49.56;101912.50;5074371;28;45756;-82
2022/03/21 03:12:21;;;;;;;;;56.25;46.50;;;;;11.69;49.54;101921.16;5074091;28;46508;-81
2022/03/21 03:14:46;;;;;;;;;62.00;47.00;;;;;11.68;49.57;101919.47;5073956;28;45562;-81
2022/03/21 03:17:12;;;;;;;;;66.75;50.75;;;;;11.70;49.72;101922.03;5073974;27;45878;-81
2022/03/21 03:19:37;;;;;;;;;58.50;47.00;;;;;11.68;49.72;101919.47;5074329;27;45674;-81
2022/03/21 03:22:04;;;;;;;;;62.00;49.00;;;;;11.67;49.74;101915.13;5074118;27;45624;-82
2022/03/21 03:24:29;;;;;;;;;58.25;47.00;;;;;11.71;49.70;101929.78;5074141;27;45967;-82
2022/03/21 03:26:55;;;;;;;;;62.50;48.25;;;;;11.72;49.73;101921.00;5077412;28;45459;-81
2022/03/21 03:29:20;;;;;;;;;59.00;47.50;;;;;11.74;49.77;101924.41;5079230;27;45758;-81
2022/03/21 03:35:09;;;;;;;;;57.00;46.00;;;;;11.75;49.66;101922.66;5079042;28;46022;-79
2022/03/21 03:37:34;;;;;;;;;62.50;47.50;;;;;11.75;49.93;101927.91;5077137;28;45553;-81
2022/03/21 03:40:00;;;;;;;;;63.25;48.00;;;;;11.76;49.93;101925.19;5078518;28;45821;-81
2022/03/21 03:42:25;;;;;;;;;57.50;46.75;;;;;11.77;49.92;101926.88;5093148;27;47408;-82
2022/03/21 03:44:51;;;;;;;;;60.00;49.00;;;;;11.78;50.05;101925.94;5076121;28;46006;-81
2022/03/21 03:50:38;;;;;;;;;56.25;46.50;;;;;11.78;50.26;101927.72;5077303;28;45482;-81
2022/03/21 03:53:04;;;;;;;;;62.75;49.25;;;;;11.77;50.34;101932.13;5075740;28;47108;-81
2022/03/21 03:55:29;;;;;;;;;59.25;46.75;;;;;11.76;50.51;101942.72;5077418;28;46355;-80
2022/03/21 03:57:54;;;;;;;;;63.50;49.75;;;;;11.72;50.39;101934.13;5077057;28;45522;-81
2022/03/21 04:00:20;;;;;;;;;60.00;45.25;;;;;11.73;50.44;101935.84;5077592;28;45697;-81
2022/03/21 04:05:30;;;;;;;;;63.50;44.50;;;;;11.76;50.54;101945.34;5076755;28;45876;-82
2022/03/21 04:07:55;;;;;;;;;60.75;47.50;;;;;11.76;50.46;101942.72;5077089;27;45543;-81
2022/03/21 04:10:21;;;;;;;;;59.00;48.00;;;;;11.75;50.52;101944.50;5077085;28;45658;-81
2022/03/21 04:12:48;;;;;;;;;60.75;48.00;;;;;11.78;50.37;101943.47;5076847;27;46465;-81
2022/03/21 04:15:15;;;;;;;;;62.50;47.50;;;;;11.75;50.53;101941.88;5076799;27;45666;-81
2022/03/21 04:21:03;;;;;;;;;58.75;45.75;;;;;11.79;50.64;101945.16;5065486;28;45902;-81
2022/03/21 04:23:28;;;;;;;;;58.00;45.75;;;;;11.82;50.71;101949.41;5076841;27;45564;-82
2022/03/21 04:25:54;;;;;;;;;61.25;49.75;;;;;11.84;50.70;101947.53;5077482;27;45546;-80
2022/03/21 04:28:20;;;;;;;;;61.00;47.00;;;;;11.83;50.39;101951.94;5076795;27;45581;-80
2022/03/21 04:30:46;;;;;;;;;56.25;45.25;;;;;11.86;50.59;101958.81;5076622;27;45763;-81
2022/03/21 04:33:14;;;;;;;;;63.50;47.50;;;;;11.86;50.57;101953.56;5076711;27;45657;-80
2022/03/21 04:35:42;;;;;;;;;59.00;47.00;;;;;11.83;50.48;101953.72;5076453;27;46717;-81
2022/03/21 04:38:15;;;;;;;;;58.75;47.25;;;;;11.86;50.27;101958.81;5075834;27;45541;-81
2022/03/21 04:40:45;;;;;;;;;61.00;46.75;;;;;11.89;50.58;101966.50;5076463;27;45698;-81
2022/03/21 04:43:11;;;;;;;;;56.25;46.00;;;;;11.90;50.49;101976.09;5076438;27;45506;-81
2022/03/21 04:45:37;;;;;;;;;61.25;48.00;;;;;11.91;50.59;101967.28;5076280;27;46364;-83
2022/03/21 04:48:06;;;;;;;;;62.25;47.00;;;;;11.91;51.13;101972.53;5091962;27;45551;-83
2022/03/21 04:50:32;;;;;;;;;59.75;48.00;;;;;11.91;50.82;101980.41;5076469;28;45583;-80
2022/03/21 04:52:58;;;;;;;;;59.50;48.50;;;;;11.89;50.76;101974.38;5076441;27;45854;-82
2022/03/21 04:55:24;;;;;;;;;62.50;47.75;;;;;11.91;50.72;101983.03;5076035;27;46359;-82
2022/03/21 04:57:49;;;;;;;;;57.25;46.00;;;;;11.92;50.54;101975.09;5076234;27;45837;-82
2022/03/21 05:00:15;;;;;;;;;61.75;47.00;;;;;11.96;50.74;101983.63;5076467;28;45609;-81
2022/03/21 05:06:05;;;;;;;;;62.50;46.00;;;;;11.95;51.01;101980.16;5075795;28;46259;-81
2022/03/21 05:08:31;;;;;;;;;58.50;45.00;;;;;11.92;50.86;101974.25;5075971;27;46028;-82
2022/03/21 05:10:56;;;;;;;;;56.75;45.50;;;;;11.98;51.10;101987.03;5076076;28;45528;-82
2022/03/21 05:13:25;;;;;;;;;59.00;45.00;;;;;11.96;51.22;101986.25;5076065;27;46787;-82
2022/03/21 05:15:51;;;;;;;;;63.75;45.25;;;;;11.97;50.92;101987.97;5075859;27;46148;-83
2022/03/21 05:21:40;;;;;;;;;60.50;46.25;;;;;11.97;50.93;101988.81;5069083;28;45871;-82
2022/03/21 05:32:18;;;;;;;;;60.00;46.50;;;;;11.95;51.23;101989.81;5075457;28;45747;-81
2022/03/21 05:37:27;;;;;;;;;58.25;46.00;;;;;11.93;51.51;101989.88;5075054;28;45717;-82
2022/03/21 05:42:37;;;;;;;;;61.75;46.00;;;;;11.92;51.48;101995.25;5075397;28;45468;-81
2022/03/21 05:45:03;;;;;;;;;58.50;48.00;;;;;11.92;51.41;102001.34;5090934;27;47701;-82
2022/03/21 05:47:29;;;;;;;;;57.25;44.75;;;;;11.90;51.65;101991.84;5075230;27;45653;-81
2022/03/21 05:49:54;;;;;;;;;60.25;47.25;;;;;11.92;51.57;102003.13;5074185;28;46009;-81
2022/03/21 05:52:20;;;;;;;;;58.50;47.00;;;;;11.88;51.61;101989.28;5075729;28;45545;-82
2022/03/21 05:54:45;;;;;;;;;57.00;48.00;;;;;11.90;51.64;101995.31;5075440;27;45651;-81
2022/03/21 05:57:11;;;;;;;;;61.25;45.25;;;;;11.89;51.64;102003.28;5075148;28;46032;-80
2022/03/21 06:02:20;;;;;;;;;64.75;49.75;;;;;11.89;51.87;102014.63;5075266;28;45625;-80
2022/03/21 06:04:46;;;;;;;;;61.00;46.50;;;;;11.86;52.06;102014.81;5075116;28;45731;-81
2022/03/21 06:07:11;;;;;;;;;58.00;45.75;;;;;11.83;52.02;102012.34;5074912;27;45793;-81
2022/03/21 06:09:37;;;;;;;;;61.00;47.00;;;;;11.81;52.22;102016.84;5074849;28;45633;-81
2022/03/21 06:12:03;;;;;;;;;55.25;43.00;;;;;11.82;52.13;102022.94;5075183;27;45609;-80
2022/03/21 06:14:28;;;;;;;;;59.50;46.75;;;;;11.79;52.19;102021.31;5075045;28;46530;-80
2022/03/21 06:16:54;;;;;;;;;62.25;50.00;;;;;11.79;52.03;102023.94;5074724;28;46094;-81
2022/03/21 06:19:19;;;;;;;;;58.25;46.00;;;;;11.78;52.22;102028.34;5075150;27;45688;-81
2022/03/21 06:21:45;;;;;;;;;59.75;46.50;;;;;11.78;52.42;102028.34;5074977;27;45597;-79
2022/03/21 06:24:13;;;;;;;;;60.50;46.00;;;;;11.77;52.55;102031.03;5074640;27;45541;-80
2022/03/21 06:26:40;;;;;;;;;57.75;47.00;;;;;11.77;52.60;102037.13;5072955;28;47477;-82
2022/03/21 06:29:05;;;;;;;;;58.50;45.75;;;;;11.78;52.58;102041.47;5075051;27;45602;-80
2022/03/21 06:31:31;;;;;;;;;56.50;46.25;;;;;11.76;52.58;102045.97;5076524;28;45747;-79
2022/03/21 06:37:20;;;;;;;;;59.50;47.75;;;;;11.74;52.97;102052.22;5074411;28;45763;-80
2022/03/21 06:39:45;;;;;;;;;58.00;45.25;;;;;11.74;52.97;102049.59;5073349;28;45951;-81
2022/03/21 06:42:14;;;;;;;;;58.00;46.00;;;;;11.72;53.02;102059.28;5074594;28;45586;-82
2022/03/21 06:44:43;;;;;;;;;56.75;47.00;;;;;11.70;52.84;102062.00;5074363;27;46497;-79
2022/03/21 06:47:11;;;;;;;;;57.25;46.00;;;;;11.76;53.09;102066.97;5075045;27;46301;-81
2022/03/21 06:49:36;;;;;;;;;54.25;43.50;;;;;11.74;52.83;102070.59;5074168;27;45650;-81
2022/03/21 06:52:03;;;;;;;;;69.00;46.00;;;;;11.78;52.85;102069.50;5074455;28;45698;-81
2022/03/21 06:54:30;;;;;;;;;64.75;48.50;;;;;11.71;52.95;102061.06;5074404;27;46412;-80
2022/03/21 06:56:56;;;;;;;;;53.00;42.75;;;;;11.80;53.09;102074.69;5074200;27;46054;-81
2022/03/21 06:59:23;;;;;;;;;58.50;47.25;;;;;11.81;53.08;102079.00;5072806;28;45582;-81
2022/03/21 07:01:49;;;;;;;;;63.50;49.25;;;;;11.86;53.20;102093.59;5074325;27;45656;-81
2022/03/21 07:07:36;;;;;;;;;61.75;48.50;;;;;11.88;53.43;102080.34;5073875;28;46244;-80
2022/03/21 07:10:05;;;;;;;;;58.00;43.50;;;;;11.93;53.47;102087.06;5074048;28;45763;-80
2022/03/21 07:12:31;;;;;;;;;55.50;43.00;;;;;11.96;53.27;102084.28;5074237;28;45594;-81
2022/03/21 07:14:56;;;;;;;;;54.00;40.25;;;;;12.02;53.36;102081.34;5074349;28;46513;-80
2022/03/21 07:17:22;;;;;;;;;57.75;44.50;;;;;12.05;53.51;102089.03;5074186;28;45699;-83
2022/03/21 07:19:48;;;;;;;;;59.75;46.25;;;;;12.04;53.59;102082.09;5074002;27;45772;-80
2022/03/21 07:22:14;;;;;;;;;56.50;43.00;;;;;12.04;53.16;102076.84;5073297;28;45635;-79
2022/03/21 07:24:40;;;;;;;;;55.00;43.75;;;;;12.11;53.24;102095.75;5074086;27;46026;-81
2022/03/21 07:27:07;;;;;;;;;53.00;41.25;;;;;12.15;53.19;102097.28;5073849;27;46102;-81
2022/03/21 07:29:32;;;;;;;;;55.25;44.50;;;;;12.19;53.10;102091.81;5089469;27;46043;-80
2022/03/21 07:31:58;;;;;;;;;55.00;44.75;;;;;12.25;53.16;102090.63;5074329;28;45774;-81
2022/03/21 07:37:50;;;;;;;;;49.50;41.75;;;;;12.37;53.00;102096.97;5073381;28;46155;-79
2022/03/21 07:40:16;;;;;;;;;53.25;40.75;;;;;12.41;53.13;102094.13;5073848;27;45840;-80
2022/03/21 07:42:43;;;;;;;;;53.75;41.50;;;;;12.47;53.11;102092.94;5074126;27;45698;-81
2022/03/21 07:47:55;;;;;;;;;52.25;42.00;;;;;12.57;52.59;102094.97;5073546;28;45792;-82
2022/03/21 07:50:23;;;;;;;;;51.50;42.00;;;;;12.62;52.85;102094.69;5073838;27;45703;-82
2022/03/21 07:52:49;;;;;;;;;53.00;42.75;;;;;12.63;52.70;102091.97;5073767;27;45598;-82
2022/03/21 07:55:15;;;;;;;;;49.75;41.25;;;;;12.67;52.63;102094.44;5073575;27;45696;-81
2022/03/21 07:57:40;;;;;;;;;53.50;41.75;;;;;12.74;52.64;102103.69;5071845;28;47112;-82
2022/03/21 08:00:09;;;;;;;;;43.00;36.75;;;;;12.81;52.60;102110.28;5073831;28;45783;-80
2022/03/21 08:02:35;;;;;;;;;48.75;40.25;;;;;12.87;52.57;102105.53;5073371;27;45878;-79
2022/03/21 08:05:01;;;;;;;;;46.00;37.00;;;;;12.92;52.19;102110.53;5088757;27;48593;-80
2022/03/21 08:07:27;;;;;;;;;39.75;36.75;;;;;12.94;52.17;102106.88;5073268;28;45974;-80
2022/03/21 08:09:53;;;;;;;;;52.00;41.75;;;;;12.99;52.19;102106.63;5088864;27;45693;-80
2022/03/21 08:12:19;;;;;;;;;44.75;37.00;;;;;13.01;52.13;102113.47;5074503;27;45455;-81
2022/03/21 08:14:44;;;;;;;;;52.25;39.75;;;;;13.04;52.27;102104.56;5076736;27;45536;-81
2022/03/21 08:17:09;;;;;;;;;38.25;35.25;;;;;13.04;51.63;102105.41;5076558;28;45992;-82
2022/03/21 08:22:56;;;;;;;;;43.00;37.00;;;;;13.13;51.71;102114.59;5065242;28;45721;-82
2022/03/21 08:25:22;;;;;;;;;45.50;38.00;;;;;13.13;51.72;102105.84;5076494;28;45657;-80
2022/03/21 08:27:47;;;;;;;;;45.50;37.50;;;;;13.17;51.88;102116.09;5076566;28;46152;-81
2022/03/21 08:30:15;;;;;;;;;46.00;37.75;;;;;13.19;51.61;102113.38;5076315;27;45510;-80
2022/03/21 08:32:48;;;;;;;;;47.00;38.00;;;;;13.21;51.61;102112.38;5076976;27;45577;-80
2022/03/21 08:38:35;;;;;;;;;41.75;36.75;;;;;13.26;51.25;102118.22;5076262;28;45659;-80
2022/03/21 08:41:00;;;;;;;;;40.75;34.75;;;;;13.29;51.39;102111.91;5076668;27;45454;-82
2022/03/21 08:43:27;;;;;;;;;41.75;36.00;;;;;13.31;51.51;102117.94;5076562;27;45775;-82
2022/03/21 08:45:52;;;;;;;;;34.25;33.50;;;;;13.34;51.26;102115.97;5076325;27;46757;-82
2022/03/21 08:48:18;;;;;;;;;41.75;34.00;;;;;13.38;51.49;102121.94;5076325;28;45626;-83
2022/03/21 08:50:43;;;;;;;;;42.50;37.00;;;;;13.39;50.92;102119.19;5076387;28;45702;-83
2022/03/21 08:53:09;;;;;;;;;46.50;34.25;;;;;13.42;51.12;102119.03;5076495;27;45870;-80
2022/03/21 08:55:34;;;;;;;;;35.50;33.00;;;;;13.47;51.33;102115.25;5076230;27;45640;-83
2022/03/21 08:58:00;;;;;;;;;39.50;33.00;;;;;13.54;51.04;102116.59;5076136;28;45894;-80
2022/03/21 09:00:26;;;;;;;;;40.50;35.75;;;;;13.62;51.19;102127.50;5074731;28;46132;-82
2022/03/21 09:02:54;;;;;;;;;37.50;33.25;;;;;13.66;51.12;102115.84;5109304;27;45993;-83
2022/03/21 09:08:42;;;;;;;;;34.50;32.00;;;;;13.79;50.72;102120.31;5075631;28;46194;-84
2022/03/21 09:11:08;;;;;;;;;34.00;31.50;;;;;13.84;50.70;102114.75;5076051;27;45520;-83
2022/03/21 09:13:34;;;;;;;;;34.50;33.50;;;;;13.85;50.34;102114.66;5091695;27;45767;-83
2022/03/21 09:15:59;;;;;;;;;40.00;36.00;;;;;13.92;50.47;102111.66;5075713;27;45660;-80
2022/03/21 09:18:24;;;;;;;;;38.25;32.25;;;;;13.94;50.43;102100.06;5075831;27;45634;-81
2022/03/21 09:20:50;;;;;;;;;37.50;33.25;;;;;13.96;50.38;102103.47;5076095;27;45576;-83
2022/03/21 09:23:16;;;;;;;;;39.75;31.50;;;;;14.06;50.15;102114.28;5075547;27;45758;-83
2022/03/21 09:25:41;;;;;;;;;42.00;36.00;;;;;14.07;50.05;102105.44;5076091;27;46902;-86
2022/03/21 09:28:08;;;;;;;;;37.50;33.50;;;;;14.11;49.95;102106.94;5076428;28;45625;-86
2022/03/21 09:30:33;;;;;;;;;39.25;31.00;;;;;14.14;50.12;102102.31;5075787;27;45930;-82
2022/03/21 09:32:59;;;;;;;;;36.00;31.25;;;;;14.21;49.75;102108.06;5076655;28;45724;-85
2022/03/21 09:38:46;;;;;;;;;34.75;29.00;;;;;14.31;49.54;102106.53;5075412;28;45778;-84
2022/03/21 09:41:22;;;;;;;;;34.00;31.00;;;;;14.35;49.75;102105.44;5074936;28;45676;-85
2022/03/21 09:43:50;;;;;;;;;30.25;28.75;;;;;14.42;49.44;102114.66;5077317;27;45502;-84
2022/03/21 09:46:17;;;;;;;;;29.00;26.75;;;;;14.43;49.38;102095.28;5076719;27;45886;-83
2022/03/21 09:48:47;;;;;;;;;31.50;26.25;;;;;14.50;49.16;102101.00;5075938;27;46246;-83
2022/03/21 09:51:12;;;;;;;;;29.00;27.00;;;;;14.52;49.08;102099.13;5091070;27;45891;-84
2022/03/21 09:53:40;;;;;;;;;28.50;25.50;;;;;14.56;49.27;102092.72;5075649;27;45566;-84
2022/03/21 09:56:08;;;;;;;;;30.50;29.00;;;;;14.58;48.96;102086.38;5075270;27;46476;-83
2022/03/21 09:58:34;;;;;;;;;27.50;26.25;;;;;14.62;49.00;102087.03;5075527;27;46283;-85
2022/03/21 10:01:00;;;;;;;;;29.00;24.00;;;;;14.69;49.07;102091.81;5075843;27;45647;-84
2022/03/21 10:03:25;;;;;;;;;33.75;30.75;;;;;14.72;48.89;102082.00;5075660;27;45696;-83
2022/03/21 10:09:16;;;;;;;;;29.00;27.00;;;;;14.88;49.00;102093.25;5074804;28;45647;-84
2022/03/21 10:11:53;;;;;;;;;31.25;26.50;;;;;14.93;48.88;102078.81;5074722;27;45964;-83
2022/03/21 10:14:32;;;;;;;;;24.50;23.25;;;;;15.01;48.54;102084.44;5075465;27;45696;-82
2022/03/21 10:17:13;;;;;;;;;31.50;26.50;;;;;15.05;48.67;102079.81;5073330;28;48883;-81
2022/03/21 10:19:47;;;;;;;;;23.75;21.50;;;;;15.12;48.67;102083.72;5075220;27;45577;-84
2022/03/21 10:22:15;;;;;;;;;23.00;21.75;;;;;15.16;48.52;102081.72;5074961;27;46045;-81
2022/03/21 10:24:46;;;;;;;;;23.50;22.00;;;;;15.22;48.17;102086.63;5091164;27;45643;-85
2022/03/21 10:27:34;;;;;;;;;22.50;20.75;;;;;15.27;48.05;102082.72;5075263;27;45508;-81
2022/03/21 10:30:08;;;;;;;;;20.75;17.50;;;;;15.31;48.02;102078.91;5075522;27;46223;-84
2022/03/21 10:32:36;;;;;;;;;20.00;18.00;;;;;15.37;47.96;102077.66;5075414;27;45518;-82
2022/03/21 10:35:17;;;;;;;;;24.25;21.25;;;;;15.41;47.64;102068.56;5074648;28;45656;-80
2022/03/21 10:38:00;;;;;;;;;20.25;18.25;;;;;15.45;47.68;102070.88;5075131;27;45703;-81
2022/03/21 10:40:42;;;;;;;;;17.75;17.00;;;;;15.52;47.33;102074.00;5074891;28;46010;-80
2022/03/21 10:43:10;;;;;;;;;20.50;18.75;;;;;15.57;47.57;102071.03;5074531;28;45521;-80
2022/03/21 10:45:44;;;;;;;;;16.75;14.75;;;;;15.59;47.38;102063.84;5074617;27;45578;-80
2022/03/21 10:48:15;;;;;;;;;16.50;15.50;;;;;15.63;47.02;102066.19;5074421;27;46400;-79
2022/03/21 10:50:43;;;;;;;;;18.75;16.00;;;;;15.71;47.27;102066.47;5074294;27;46185;-80
2022/03/21 10:53:17;;;;;;;;;14.50;14.00;;;;;15.77;46.72;102073.13;5074598;27;45814;-81
2022/03/21 10:55:58;;;;;;;;;11.50;10.50;;;;;15.81;46.73;102064.91;5072898;28;45702;-80
2022/03/21 10:58:49;;;;;;;;;17.00;15.00;;;;;15.85;46.79;102063.75;5073291;28;46423;-81
2022/03/21 11:01:26;;;;;;;;;18.25;15.25;;;;;15.87;46.44;102053.88;5074148;27;46166;-80
2022/03/21 11:03:59;;;;;;;;;16.75;16.75;;;;;15.94;46.64;102056.94;5074305;28;45715;-79
2022/03/21 11:06:27;;;;;;;;;14.75;13.75;;;;;16.00;46.58;102055.69;5074342;27;45607;-81
2022/03/21 11:08:54;;;;;;;;;14.75;12.75;;;;;16.05;46.46;102059.69;5074384;28;46718;-81
2022/03/21 11:11:20;;;;;;;;;17.75;15.00;;;;;16.08;46.43;102051.56;5074407;27;46078;-80
2022/03/21 11:13:47;;;;;;;;;15.75;14.75;;;;;16.11;46.18;102047.84;5074854;27;45631;-77
2022/03/21 11:16:18;;;;;;;;;15.50;13.50;;;;;16.16;45.99;102054.47;5074627;27;45882;-80
2022/03/21 11:18:46;;;;;;;;;15.75;15.00;;;;;16.22;46.14;102047.91;5090348;27;47511;-80
2022/03/21 11:21:13;;;;;;;;;18.50;16.50;;;;;16.28;46.04;102042.19;5074684;27;46316;-79
2022/03/21 11:23:40;;;;;;;;;15.25;14.00;;;;;16.33;45.83;102050.63;5074041;27;45761;-80
2022/03/21 11:26:16;;;;;;;;;16.25;13.25;;;;;16.37;45.72;102033.56;5074138;27;45737;-80
2022/03/21 11:29:00;;;;;;;;;9.00;9.00;;;;;16.46;45.50;102037.38;5074097;27;45518;-80
2022/03/21 11:31:51;;;;;;;;;14.25;14.00;;;;;16.50;45.83;102039.69;5073720;28;46026;-82
2022/03/21 11:34:34;;;;;;;;;16.50;13.00;;;;;16.55;45.42;102034.91;5072766;28;45809;-80
2022/03/21 11:36:59;;;;;;;;;16.00;14.25;;;;;16.61;45.42;102028.34;5072399;28;45771;-81
2022/03/21 11:39:26;;;;;;;;;17.50;14.50;;;;;16.66;45.50;102023.53;5073836;28;46156;-81
2022/03/21 11:42:10;;;;;;;;;13.25;12.00;;;;;16.71;45.52;102030.19;5074287;27;46260;-80
2022/03/21 11:44:36;;;;;;;;;14.75;13.50;;;;;16.75;45.27;102023.69;5074127;27;45474;-81
2022/03/21 11:47:22;;;;;;;;;14.25;14.25;;;;;16.77;45.03;102019.16;5076313;27;45659;-80
2022/03/21 11:49:48;;;;;;;;;13.25;11.25;;;;;16.83;45.20;102017.84;5077636;27;45840;-82
2022/03/21 11:52:14;;;;;;;;;15.25;12.00;;;;;16.89;44.93;102016.56;5093366;27;46883;-81
2022/03/21 11:54:40;;;;;;;;;12.25;11.00;;;;;16.91;44.64;102012.81;5077765;27;45624;-81
2022/03/21 11:57:24;;;;;;;;;15.50;13.00;;;;;16.95;44.93;102013.44;5077562;27;45604;-81
2022/03/21 11:59:52;;;;;;;;;14.75;12.25;;;;;17.02;44.64;101999.59;5077185;27;45726;-81
2022/03/21 12:02:17;;;;;;;;;13.00;11.50;;;;;17.07;44.40;102010.69;5077206;27;46322;-81
2022/03/21 12:04:56;;;;;;;;;17.50;14.00;;;;;17.13;44.24;102010.22;5075281;28;45495;-78
2022/03/21 12:07:21;;;;;;;;;12.25;11.50;;;;;17.19;44.31;102004.47;5077281;27;45588;-82
2022/03/21 12:09:50;;;;;;;;;13.50;10.50;;;;;17.23;44.07;102006.88;5076652;27;45640;-81
2022/03/21 12:12:20;;;;;;;;;13.50;11.75;;;;;17.31;43.69;102013.28;5077437;27;45616;-82
2022/03/21 12:14:58;;;;;;;;;14.50;13.00;;;;;17.37;43.58;102007.50;5077150;27;45541;-82
2022/03/21 12:17:23;;;;;;;;;16.50;13.50;;;;;17.44;43.69;102005.22;5077414;27;45675;-84
2022/03/21 12:19:54;;;;;;;;;11.00;10.25;;;;;17.49;43.22;102003.06;5077041;27;45691;-81
2022/03/21 12:22:35;;;;;;;;;14.50;11.50;;;;;17.54;43.46;101993.78;5073354;28;47673;-80
2022/03/21 12:25:08;;;;;;;;;12.00;11.50;;;;;17.60;43.56;102003.09;5077261;28;45719;-81
2022/03/21 12:27:33;;;;;;;;;11.75;10.75;;;;;17.64;43.07;101995.75;5076710;27;45652;-78
2022/03/21 12:30:27;;;;;;;;;11.50;11.25;;;;;17.69;42.90;102002.38;5076694;27;46213;-79
2022/03/21 12:32:56;;;;;;;;;15.00;14.75;;;;;17.74;42.79;101997.56;5076792;27;45803;-79
2022/03/21 12:38:51;;;;;;;;;19.25;15.00;;;;;17.81;42.37;101977.56;4994182;28;45709;-79
2022/03/21 12:41:18;;;;;;;;;16.00;15.00;;;;;17.85;42.95;101983.47;4994403;28;46011;-76
2022/03/21 12:43:52;;;;;;;;;13.25;12.25;;;;;17.92;42.48;101979.34;4994336;28;46328;-76